KISP/ISP METAR and TAF weather

Enter ICAO airport designator
Station Type Date Time Source
KISP METAR 2020/01/19 00:28 UTC NOAA

KISP 190028Z 19009KT 1SM R06/P6000FT -SNPL BR OVC003 01/01 A3000 RMK AO2 SFC VIS 2 P0002 T00110011 $


Station Type Date Time Source
KISP Decoded METAR 2020/01/19 00:28 UTC NOAA

ISLIP LONG ISLAND MAC ART, NY, United States (KISP) 40-48N 073-06W 43M
Jan 18, 2020 - 07:28 PM EST / 2020.01.19 0028 UTC
Wind: from the S (190 degrees) at 10 MPH (9 KT):0
Visibility: 1 mile(s):0
Sky conditions: overcast
Weather: light snow, ice pellets; mist
Precipitation last hour: 0.02 inches
Temperature: 34.0 F (1.1 C)
Windchill: 26 F (-3 C):1
Dew Point: 34.0 F (1.1 C)
Relative Humidity: 100%
Pressure (altimeter): 30 in. Hg (1015 hPa)
ob: KISP 190028Z 19009KT 1SM R06/P6000FT -SNPL BR OVC003 01/01 A3000 RMK AO2 SFC VIS 2 P0002 T00110011
cycle: 0

Station Type Date Time Source
KISP TAF 2020/01/18 23:18 UTC NOAA

TAF
AMD KISP 182314Z 1823/1918 18010KT 1SM -SN BR OVC006
TEMPO 1823/1824 1/2SM SN OVC006
FM190100 19010KT 1SM -SNRA BR OVC005
FM190200 20010KT 3SM -RA BR OVC008
FM190400 24012G19KT 5SM BR VCSH BKN009 OVC015
FM190800 26012G20KT P6SM BKN015
FM191400 28015G23KT P6SM FEW015 SCT050

Example: see airport list